createdAt,value
2022-09-12T00:03:55.394Z,10.90
2022-09-12T00:07:57.187Z,11.80
2022-09-12T00:11:58.865Z,10.68
2022-09-12T00:16:01.102Z,10.35
2022-09-12T00:20:04.491Z,9.90
2022-09-12T00:24:06.778Z,10.50
2022-09-12T00:28:08.545Z,9.43
2022-09-12T00:32:10.219Z,10.23
2022-09-12T00:36:18.490Z,11.18
2022-09-12T00:40:20.193Z,10.27
2022-09-12T00:44:21.742Z,10.88
2022-09-12T00:48:32.121Z,9.98
2022-09-12T00:52:43.749Z,10.15
2022-09-12T00:56:47.807Z,10.15
2022-09-12T01:00:50.183Z,10.73
2022-09-12T01:04:52.319Z,9.88
2022-09-12T01:08:55.116Z,10.05
2022-09-12T01:12:57.479Z,10.50
2022-09-12T01:16:59.557Z,10.25
2022-09-12T01:21:26.072Z,9.88
2022-09-12T01:25:44.614Z,9.95
2022-09-12T01:30:23.738Z,10.07
2022-09-12T01:38:47.157Z,9.98
2022-09-12T01:43:04.374Z,10.35
2022-09-12T01:47:15.778Z,9.80
2022-09-12T01:51:26.410Z,10.20
2022-09-12T01:55:32.679Z,10.25
2022-09-12T01:59:39.644Z,10.70
2022-09-12T02:03:51.208Z,10.63
2022-09-12T02:08:01.241Z,10.15
2022-09-12T02:12:04.921Z,10.32
2022-09-12T02:16:11.286Z,10.80
2022-09-12T02:20:48.275Z,10.02
2022-09-12T02:24:55.666Z,11.02
2022-09-12T02:28:57.667Z,10.85
2022-09-12T02:33:06.318Z,11.05
2022-09-12T02:37:19.023Z,10.65
2022-09-12T02:41:21.781Z,11.88
2022-09-12T02:45:23.855Z,10.57
2022-09-12T02:49:25.606Z,10.35
2022-09-12T02:53:27.636Z,10.90
2022-09-12T02:57:29.290Z,11.00
2022-09-12T03:01:50.182Z,10.98
2022-09-12T03:06:01.104Z,11.52
2022-09-12T03:10:23.186Z,12.43
2022-09-12T03:14:51.178Z,10.80
2022-09-12T03:19:03.856Z,12.17
2022-09-12T03:23:20.230Z,10.32
2022-09-12T03:27:34.936Z,12.18
2022-09-12T03:31:36.632Z,12.93
2022-09-12T03:35:38.528Z,11.52
2022-09-12T03:39:40.391Z,11.15
2022-09-12T03:43:42.212Z,11.23
2022-09-12T03:47:43.869Z,11.68
2022-09-12T03:51:45.620Z,11.05
2022-09-12T03:55:47.284Z,11.48
2022-09-12T03:59:50.349Z,11.15
2022-09-12T04:03:52.915Z,11.98
2022-09-12T04:07:54.563Z,11.80
2022-09-12T04:11:56.245Z,11.63
2022-09-12T04:15:59.722Z,10.43
2022-09-12T04:20:01.567Z,11.85
2022-09-12T04:24:03.552Z,11.63
2022-09-12T04:28:05.177Z,11.90
2022-09-12T04:32:06.829Z,12.90
2022-09-12T04:36:16.806Z,13.23
2022-09-12T04:40:19.108Z,12.73
2022-09-12T04:44:20.783Z,11.52
2022-09-12T04:48:22.541Z,13.00
2022-09-12T04:52:24.334Z,11.63
2022-09-12T04:56:26.952Z,12.10
2022-09-12T05:00:29.110Z,12.57
2022-09-12T05:04:31.660Z,12.63
2022-09-12T05:08:35.067Z,12.38
2022-09-12T05:12:37.047Z,13.13
2022-09-12T05:16:39.017Z,13.57
2022-09-12T05:20:40.802Z,15.60
2022-09-12T05:24:47.284Z,13.50
2022-09-12T05:28:53.051Z,13.07
2022-09-12T05:32:54.713Z,13.43
2022-09-12T05:36:56.389Z,13.57
2022-09-12T05:41:06.313Z,13.82
2022-09-12T05:45:08.759Z,12.43
2022-09-12T05:49:12.823Z,12.63
2022-09-12T05:53:14.479Z,13.23
2022-09-12T05:57:16.141Z,12.70
2022-09-12T06:01:19.341Z,12.68
2022-09-12T06:05:21.158Z,12.93
2022-09-12T06:09:25.458Z,12.60
2022-09-12T06:13:27.285Z,13.02
2022-09-12T06:17:29.046Z,13.70
2022-09-12T06:21:31.417Z,12.60
2022-09-12T06:25:33.085Z,12.40
2022-09-12T06:29:34.759Z,12.68
2022-09-12T06:33:38.612Z,12.80
2022-09-12T06:37:40.788Z,13.02
2022-09-12T06:41:44.271Z,13.82
2022-09-12T06:45:50.383Z,13.43
2022-09-12T06:49:52.107Z,13.38
2022-09-12T06:53:57.635Z,14.30
2022-09-12T06:57:59.915Z,12.73
2022-09-12T07:02:01.722Z,13.15
2022-09-12T07:06:08.642Z,13.27
2022-09-12T07:10:12.035Z,13.15
2022-09-12T07:14:15.150Z,12.85
2022-09-12T07:18:16.853Z,12.93
2022-09-12T07:22:19.220Z,14.32
2022-09-12T07:26:21.431Z,12.75
2022-09-12T07:30:23.307Z,13.48
2022-09-12T07:34:25.055Z,13.70
2022-09-12T07:38:26.747Z,13.88
2022-09-12T07:42:28.786Z,13.50
2022-09-12T07:46:31.447Z,12.82
2022-09-12T07:50:33.628Z,12.88
2022-09-12T07:54:35.389Z,13.00
2022-09-12T07:58:39.269Z,13.63
2022-09-12T08:02:41.285Z,12.90
2022-09-12T08:06:43.222Z,13.15
2022-09-12T08:10:44.869Z,13.48
2022-09-12T08:14:46.777Z,11.73
2022-09-12T08:18:49.431Z,13.00
2022-09-12T08:22:51.434Z,12.88
2022-09-12T08:26:53.110Z,12.40
2022-09-12T08:30:54.947Z,12.40
2022-09-12T08:34:56.664Z,12.07
2022-09-12T08:39:00.767Z,11.95
2022-09-12T08:43:25.955Z,11.82
2022-09-12T08:47:34.610Z,11.13
2022-09-12T08:51:36.959Z,11.63
2022-09-12T08:55:51.378Z,10.60
2022-09-12T08:59:53.665Z,9.65
2022-09-12T09:04:26.907Z,10.45
2022-09-12T09:08:59.410Z,8.93
2022-09-12T09:13:14.198Z,8.45
2022-09-12T09:17:41.142Z,7.85
2022-09-12T09:21:42.749Z,8.15
2022-09-12T09:25:56.495Z,7.97
2022-09-12T09:29:58.186Z,7.13
2022-09-12T09:34:00.613Z,7.20
2022-09-12T09:38:24.655Z,6.18
2022-09-12T09:42:32.137Z,6.38
2022-09-12T09:46:34.085Z,6.75
2022-09-12T09:50:37.478Z,5.28
2022-09-12T09:54:44.389Z,6.60
2022-09-12T09:58:46.366Z,4.90
2022-09-12T10:03:11.341Z,5.60
2022-09-12T10:07:20.211Z,5.18
2022-09-12T10:11:23.300Z,4.30
2022-09-12T10:15:26.688Z,5.00
2022-09-12T10:19:40.455Z,5.22
2022-09-12T10:23:43.416Z,4.68
2022-09-12T10:27:45.354Z,5.90
2022-09-12T10:31:59.734Z,4.07
2022-09-12T10:36:02.503Z,4.55
2022-09-12T10:40:20.863Z,4.40
2022-09-12T10:44:28.467Z,3.88
2022-09-12T10:48:33.654Z,3.60
2022-09-12T10:52:35.464Z,3.50
2022-09-12T10:57:02.081Z,3.53
2022-09-12T11:01:19.285Z,3.35
2022-09-12T11:05:45.362Z,4.32
2022-09-12T11:10:11.960Z,4.47
2022-09-12T11:15:07.062Z,3.58
2022-09-12T11:19:50.991Z,3.10
2022-09-12T11:24:23.784Z,4.35
2022-09-12T11:28:53.663Z,3.80
2022-09-12T11:33:40.877Z,3.65
2022-09-12T11:37:52.555Z,3.97
2022-09-12T11:42:02.105Z,3.65
2022-09-12T11:46:11.682Z,3.20
2022-09-12T11:50:27.135Z,3.25
2022-09-12T11:54:44.924Z,3.17
2022-09-12T11:58:53.221Z,2.60
2022-09-12T12:03:06.903Z,3.35
2022-09-12T12:07:11.410Z,3.33
2022-09-12T12:11:16.506Z,3.28
2022-09-12T12:15:19.268Z,2.75
2022-09-12T12:19:32.914Z,3.35
2022-09-12T12:23:35.501Z,3.85
2022-09-12T12:27:53.835Z,3.17
2022-09-12T12:32:02.170Z,3.20
2022-09-12T12:36:08.138Z,2.47
2022-09-12T12:40:22.907Z,3.75
2022-09-12T12:44:44.808Z,3.45
2022-09-12T12:48:55.873Z,5.10
2022-09-12T12:53:17.111Z,3.00
2022-09-12T12:57:29.938Z,3.47
2022-09-12T13:01:32.595Z,2.92
2022-09-12T13:05:44.976Z,3.40
2022-09-12T13:09:55.439Z,4.32
2022-09-12T13:14:03.329Z,3.78
2022-09-12T13:18:12.607Z,5.40
2022-09-12T13:22:14.651Z,3.53
2022-09-12T13:26:25.726Z,3.63
2022-09-12T13:30:31.495Z,4.03
2022-09-12T13:34:58.278Z,3.80
2022-09-12T13:39:27.720Z,3.95
2022-09-12T13:43:42.820Z,2.67
2022-09-12T13:47:47.674Z,3.10
2022-09-12T13:52:03.377Z,2.97
2022-09-12T13:56:05.172Z,3.03
2022-09-12T14:00:20.052Z,4.60
2022-09-12T14:04:43.396Z,3.70
2022-09-12T14:08:47.825Z,3.40
2022-09-12T14:12:52.910Z,4.18
2022-09-12T14:16:54.938Z,4.05
2022-09-12T14:21:01.047Z,2.92
2022-09-12T14:25:03.285Z,3.72
2022-09-12T14:29:06.644Z,3.75
2022-09-12T14:33:11.319Z,4.57
2022-09-12T14:37:13.098Z,2.92
2022-09-12T14:41:23.320Z,2.92
2022-09-12T14:45:31.553Z,3.13
2022-09-12T14:49:36.844Z,3.33
2022-09-12T14:53:49.127Z,2.92
2022-09-12T14:58:12.569Z,2.28
2022-09-12T15:02:17.189Z,3.35
2022-09-12T15:06:26.679Z,2.95
2022-09-12T15:10:35.863Z,2.63
2022-09-12T15:14:37.512Z,2.58
2022-09-12T15:18:39.388Z,2.90
2022-09-12T15:22:42.226Z,2.70
2022-09-12T15:26:43.906Z,2.90
2022-09-12T15:30:47.512Z,2.15
2022-09-12T15:34:49.216Z,2.30
2022-09-12T15:38:51.909Z,2.78
2022-09-12T15:42:53.553Z,2.40
2022-09-12T15:46:55.258Z,2.25
2022-09-12T15:51:01.446Z,2.30
2022-09-12T15:55:04.434Z,2.25
2022-09-12T15:59:06.230Z,2.13
2022-09-12T16:03:23.692Z,2.13
2022-09-12T16:07:25.331Z,2.08
2022-09-12T16:11:27.599Z,2.20
2022-09-12T16:15:29.263Z,2.33
2022-09-12T16:19:30.992Z,2.33
2022-09-12T16:23:33.048Z,2.70
2022-09-12T16:27:35.698Z,2.90
2022-09-12T16:31:38.512Z,2.72
2022-09-12T16:35:40.257Z,2.30
2022-09-12T16:39:42.085Z,2.42
2022-09-12T16:43:44.524Z,2.35
2022-09-12T16:47:46.217Z,2.17
2022-09-12T16:51:47.916Z,2.20
2022-09-12T16:55:50.319Z,2.80
2022-09-12T16:59:52.219Z,2.03
2022-09-12T17:03:56.589Z,2.30
2022-09-12T17:07:58.263Z,2.50
2022-09-12T17:12:00.709Z,2.40
2022-09-12T17:16:12.381Z,2.67
2022-09-12T17:20:14.099Z,2.35
2022-09-12T17:24:17.670Z,2.60
2022-09-12T17:28:20.173Z,2.17
2022-09-12T17:32:21.906Z,2.45
2022-09-12T17:36:23.562Z,2.58
2022-09-12T17:40:42.523Z,2.90
2022-09-12T17:44:46.882Z,2.95
2022-09-12T17:48:56.843Z,2.53
2022-09-12T17:52:58.530Z,3.28
2022-09-12T17:57:00.198Z,2.63
2022-09-12T18:01:22.445Z,2.80
2022-09-12T18:05:24.139Z,2.72
2022-09-12T18:09:26.837Z,3.60
2022-09-12T18:13:28.514Z,3.17
2022-09-12T18:17:30.194Z,3.35
2022-09-12T18:21:32.079Z,3.28
2022-09-12T18:25:33.755Z,3.58
2022-09-12T18:29:35.493Z,3.83
2022-09-12T18:33:37.984Z,3.97
2022-09-12T18:37:42.489Z,3.63
2022-09-12T18:41:44.459Z,3.00
2022-09-12T18:45:46.113Z,3.60
2022-09-12T18:49:48.624Z,3.75
2022-09-12T18:53:53.636Z,3.80
2022-09-12T18:57:55.701Z,4.20
2022-09-12T19:01:57.939Z,3.58
2022-09-12T19:05:59.736Z,4.28
2022-09-12T19:10:01.459Z,4.07
2022-09-12T19:14:03.359Z,4.60
2022-09-12T19:18:05.100Z,4.60
2022-09-12T19:22:06.787Z,3.30
2022-09-12T19:26:10.937Z,3.47
2022-09-12T19:30:12.750Z,3.90
2022-09-12T19:34:15.078Z,3.85
2022-09-12T19:38:17.063Z,4.43
2022-09-12T19:42:18.796Z,3.88
2022-09-12T19:46:22.677Z,3.90
2022-09-12T19:50:24.802Z,4.70
2022-09-12T19:54:26.423Z,3.70
2022-09-12T19:58:29.242Z,3.80
2022-09-12T20:02:31.122Z,3.58
2022-09-12T20:06:32.931Z,3.97
2022-09-12T20:10:34.647Z,4.38
2022-09-12T20:14:36.381Z,4.22
2022-09-12T20:18:41.622Z,4.20
2022-09-12T20:22:43.356Z,4.05
2022-09-12T20:26:45.188Z,4.75
2022-09-12T20:30:47.035Z,4.25
2022-09-12T20:34:48.718Z,4.50
2022-09-12T20:38:53.401Z,4.35
2022-09-12T20:42:55.092Z,4.93
2022-09-12T20:46:57.126Z,4.53
2022-09-12T20:50:59.823Z,4.85
2022-09-12T20:55:01.548Z,4.68
2022-09-12T20:59:04.232Z,4.25
2022-09-12T21:03:05.876Z,5.07
2022-09-12T21:07:07.581Z,4.82
2022-09-12T21:11:10.001Z,4.93
2022-09-12T21:15:11.700Z,4.63
2022-09-12T21:19:13.381Z,5.43
2022-09-12T21:23:15.064Z,5.53
2022-09-12T21:27:16.867Z,5.60
2022-09-12T21:31:18.674Z,5.28
2022-09-12T21:35:20.391Z,5.53
2022-09-12T21:39:22.367Z,6.22
2022-09-12T21:43:24.065Z,6.20
2022-09-12T21:47:25.715Z,6.05
2022-09-12T21:51:27.411Z,6.75
2022-09-12T21:55:29.307Z,7.95
2022-09-12T21:59:31.142Z,7.18
2022-09-12T22:03:32.990Z,6.63
2022-09-12T22:07:34.704Z,7.32
2022-09-12T22:11:36.391Z,6.63
2022-09-12T22:15:40.941Z,7.45
2022-09-12T22:19:43.033Z,6.68
2022-09-12T22:24:04.449Z,5.82
2022-09-12T22:28:06.227Z,6.70
2022-09-12T22:32:08.010Z,6.13
2022-09-12T22:36:10.205Z,6.53
2022-09-12T22:40:12.066Z,5.55
2022-09-12T22:44:14.167Z,6.65
2022-09-12T22:48:17.225Z,7.07
2022-09-12T22:52:18.950Z,6.85
2022-09-12T22:56:20.622Z,7.05
2022-09-12T23:00:23.660Z,6.95
2022-09-12T23:04:25.462Z,6.63
2022-09-12T23:08:29.706Z,6.03
2022-09-12T23:12:32.060Z,6.47
2022-09-12T23:16:33.880Z,6.65
2022-09-12T23:20:35.741Z,5.80
2022-09-12T23:24:38.373Z,6.53
2022-09-12T23:28:41.594Z,6.00
2022-09-12T23:32:43.292Z,6.13
2022-09-12T23:36:44.990Z,6.80
2022-09-12T23:40:46.691Z,6.25
2022-09-12T23:44:48.389Z,6.07
2022-09-12T23:48:50.423Z,6.68
2022-09-12T23:52:52.153Z,6.35
2022-09-12T23:56:53.828Z,6.00
